sensor_id;sensor_type;location;lat;lon;timestamp;P1;durP1;ratioP1;P2;durP2;ratioP2
1991;SDS011;997;48.448;8.924;2022-07-23T03:00:38;7.43;;;6.80;;
1991;SDS011;997;48.448;8.924;2022-07-23T03:03:04;7.97;;;7.37;;
1991;SDS011;997;48.448;8.924;2022-07-23T03:05:30;7.50;;;7.00;;
1991;SDS011;997;48.448;8.924;2022-07-23T03:07:55;7.57;;;6.97;;
1991;SDS011;997;48.448;8.924;2022-07-23T03:10:21;7.67;;;7.03;;
1991;SDS011;997;48.448;8.924;2022-07-23T03:12:46;7.93;;;7.33;;
1991;SDS011;997;48.448;8.924;2022-07-23T03:15:12;8.17;;;7.47;;
1991;SDS011;997;48.448;8.924;2022-07-23T03:17:38;7.03;;;6.53;;
1991;SDS011;997;48.448;8.924;2022-07-23T03:20:03;7.20;;;6.00;;
1991;SDS011;997;48.448;8.924;2022-07-23T03:22:32;7.90;;;6.27;;
1991;SDS011;997;48.448;8.924;2022-07-23T03:24:58;6.13;;;5.73;;
1991;SDS011;997;48.448;8.924;2022-07-23T03:27:24;7.93;;;7.23;;
1991;SDS011;997;48.448;8.924;2022-07-23T03:29:51;7.70;;;7.10;;
1991;SDS011;997;48.448;8.924;2022-07-23T03:32:18;7.07;;;6.57;;
1991;SDS011;997;48.448;8.924;2022-07-23T03:34:45;7.50;;;6.97;;
1991;SDS011;997;48.448;8.924;2022-07-23T03:37:10;6.77;;;6.27;;
1991;SDS011;997;48.448;8.924;2022-07-23T03:39:36;6.77;;;6.27;;
1991;SDS011;997;48.448;8.924;2022-07-23T03:42:02;7.07;;;6.57;;
1991;SDS011;997;48.448;8.924;2022-07-23T03:44:31;6.20;;;5.70;;
1991;SDS011;997;48.448;8.924;2022-07-23T03:46:57;6.43;;;5.93;;
1991;SDS011;997;48.448;8.924;2022-07-23T03:49:23;6.37;;;5.97;;
1991;SDS011;997;48.448;8.924;2022-07-23T03:51:48;6.50;;;5.97;;
1991;SDS011;997;48.448;8.924;2022-07-23T03:54:14;5.90;;;5.50;;
1991;SDS011;997;48.448;8.924;2022-07-23T03:56:40;6.90;;;6.30;;
1991;SDS011;997;48.448;8.924;2022-07-23T03:59:06;6.80;;;6.23;;
1991;SDS011;997;48.448;8.924;2022-07-23T04:01:31;5.80;;;5.40;;
1991;SDS011;997;48.448;8.924;2022-07-23T04:03:57;6.30;;;5.90;;
1991;SDS011;997;48.448;8.924;2022-07-23T04:06:23;6.97;;;6.10;;
1991;SDS011;997;48.448;8.924;2022-07-23T04:08:49;7.50;;;6.90;;
1991;SDS011;997;48.448;8.924;2022-07-23T04:11:14;6.20;;;5.60;;
1991;SDS011;997;48.448;8.924;2022-07-23T04:13:40;7.07;;;6.37;;
1991;SDS011;997;48.448;8.924;2022-07-23T04:16:06;6.40;;;5.90;;
1991;SDS011;997;48.448;8.924;2022-07-23T04:18:31;7.70;;;7.00;;
1991;SDS011;997;48.448;8.924;2022-07-23T04:20:57;9.40;;;7.00;;
1991;SDS011;997;48.448;8.924;2022-07-23T04:23:23;7.27;;;6.77;;
1991;SDS011;997;48.448;8.924;2022-07-23T04:25:51;7.77;;;7.07;;
1991;SDS011;997;48.448;8.924;2022-07-23T04:28:17;7.63;;;7.03;;
1991;SDS011;997;48.448;8.924;2022-07-23T04:30:43;7.83;;;7.13;;
1991;SDS011;997;48.448;8.924;2022-07-23T04:33:08;7.53;;;6.93;;
1991;SDS011;997;48.448;8.924;2022-07-23T04:35:34;8.27;;;7.73;;
1991;SDS011;997;48.448;8.924;2022-07-23T04:38:01;8.17;;;7.50;;
1991;SDS011;997;48.448;8.924;2022-07-23T04:40:28;7.50;;;7.00;;
1991;SDS011;997;48.448;8.924;2022-07-23T04:42:53;9.20;;;8.20;;
1991;SDS011;997;48.448;8.924;2022-07-23T04:45:19;7.40;;;6.77;;
1991;SDS011;997;48.448;8.924;2022-07-23T04:47:45;10.10;;;9.23;;
1991;SDS011;997;48.448;8.924;2022-07-23T04:50:11;9.07;;;8.40;;
1991;SDS011;997;48.448;8.924;2022-07-23T04:52:37;8.40;;;7.70;;
1991;SDS011;997;48.448;8.924;2022-07-23T04:55:02;8.80;;;8.10;;
1991;SDS011;997;48.448;8.924;2022-07-23T04:57:29;9.20;;;8.40;;
1991;SDS011;997;48.448;8.924;2022-07-23T04:59:54;9.17;;;8.37;;
1991;SDS011;997;48.448;8.924;2022-07-23T05:02:20;12.53;;;9.17;;
1991;SDS011;997;48.448;8.924;2022-07-23T05:04:46;10.30;;;9.30;;
1991;SDS011;997;48.448;8.924;2022-07-23T05:07:11;8.90;;;8.17;;
1991;SDS011;997;48.448;8.924;2022-07-23T05:09:37;10.30;;;9.40;;
1991;SDS011;997;48.448;8.924;2022-07-23T05:12:03;12.20;;;10.00;;
1991;SDS011;997;48.448;8.924;2022-07-23T05:14:29;9.03;;;8.43;;
1991;SDS011;997;48.448;8.924;2022-07-23T05:16:54;9.00;;;8.30;;
1991;SDS011;997;48.448;8.924;2022-07-23T05:19:20;9.60;;;8.80;;
1991;SDS011;997;48.448;8.924;2022-07-23T05:21:46;10.83;;;9.83;;
1991;SDS011;997;48.448;8.924;2022-07-23T05:24:12;10.03;;;9.17;;
1991;SDS011;997;48.448;8.924;2022-07-23T05:26:38;10.07;;;9.27;;
1991;SDS011;997;48.448;8.924;2022-07-23T05:29:03;10.03;;;9.00;;
1991;SDS011;997;48.448;8.924;2022-07-23T05:31:29;9.00;;;8.30;;
1991;SDS011;997;48.448;8.924;2022-07-23T05:33:55;9.90;;;9.00;;
1991;SDS011;997;48.448;8.924;2022-07-23T05:36:20;9.40;;;8.70;;
1991;SDS011;997;48.448;8.924;2022-07-23T05:38:46;8.60;;;7.80;;
1991;SDS011;997;48.448;8.924;2022-07-23T05:41:12;9.67;;;8.87;;
1991;SDS011;997;48.448;8.924;2022-07-23T05:43:37;12.93;;;10.00;;
1991;SDS011;997;48.448;8.924;2022-07-23T05:46:03;9.83;;;8.90;;
1991;SDS011;997;48.448;8.924;2022-07-23T05:48:29;9.20;;;8.60;;
1991;SDS011;997;48.448;8.924;2022-07-23T05:50:54;10.77;;;9.30;;
1991;SDS011;997;48.448;8.924;2022-07-23T05:53:20;9.47;;;8.67;;
1991;SDS011;997;48.448;8.924;2022-07-23T05:55:45;9.47;;;8.67;;
1991;SDS011;997;48.448;8.924;2022-07-23T05:58:11;10.27;;;9.17;;
1991;SDS011;997;48.448;8.924;2022-07-23T06:00:37;9.30;;;8.57;;
1991;SDS011;997;48.448;8.924;2022-07-23T06:03:03;9.37;;;8.47;;
1991;SDS011;997;48.448;8.924;2022-07-23T06:05:28;8.53;;;7.93;;
1991;SDS011;997;48.448;8.924;2022-07-23T06:07:54;8.77;;;8.13;;
1991;SDS011;997;48.448;8.924;2022-07-23T06:10:20;9.60;;;8.80;;
1991;SDS011;997;48.448;8.924;2022-07-23T06:12:46;8.80;;;8.10;;
1991;SDS011;997;48.448;8.924;2022-07-23T06:15:12;10.53;;;9.03;;
1991;SDS011;997;48.448;8.924;2022-07-23T06:17:38;10.20;;;9.30;;
1991;SDS011;997;48.448;8.924;2022-07-23T06:20:05;9.80;;;9.00;;
1991;SDS011;997;48.448;8.924;2022-07-23T06:22:31;9.27;;;8.57;;
1991;SDS011;997;48.448;8.924;2022-07-23T06:24:57;10.03;;;9.23;;
1991;SDS011;997;48.448;8.924;2022-07-23T06:27:22;9.40;;;8.60;;
1991;SDS011;997;48.448;8.924;2022-07-23T06:29:48;9.10;;;8.50;;
1991;SDS011;997;48.448;8.924;2022-07-23T06:32:16;8.90;;;8.07;;
1991;SDS011;997;48.448;8.924;2022-07-23T06:34:42;8.80;;;8.10;;
1991;SDS011;997;48.448;8.924;2022-07-23T06:37:07;9.67;;;8.87;;
1991;SDS011;997;48.448;8.924;2022-07-23T06:39:33;9.80;;;9.00;;
1991;SDS011;997;48.448;8.924;2022-07-23T06:41:59;9.77;;;9.03;;
1991;SDS011;997;48.448;8.924;2022-07-23T06:44:26;9.30;;;8.40;;
1991;SDS011;997;48.448;8.924;2022-07-23T06:46:52;9.20;;;8.50;;
1991;SDS011;997;48.448;8.924;2022-07-23T06:49:17;8.30;;;7.60;;
1991;SDS011;997;48.448;8.924;2022-07-23T06:51:43;9.20;;;8.40;;
1991;SDS011;997;48.448;8.924;2022-07-23T06:54:09;7.80;;;7.20;;
1991;SDS011;997;48.448;8.924;2022-07-23T06:56:35;9.33;;;8.13;;
1991;SDS011;997;48.448;8.924;2022-07-23T06:59:00;8.80;;;7.90;;
1991;SDS011;997;48.448;8.924;2022-07-23T07:01:26;7.87;;;7.27;;
1991;SDS011;997;48.448;8.924;2022-07-23T07:03:52;7.70;;;7.20;;
1991;SDS011;997;48.448;8.924;2022-07-23T07:06:18;7.73;;;6.93;;
1991;SDS011;997;48.448;8.924;2022-07-23T07:08:44;9.27;;;8.47;;
1991;SDS011;997;48.448;8.924;2022-07-23T07:11:10;9.13;;;8.53;;
1991;SDS011;997;48.448;8.924;2022-07-23T07:13:36;8.20;;;7.60;;
1991;SDS011;997;48.448;8.924;2022-07-23T07:16:03;7.90;;;7.30;;
1991;SDS011;997;48.448;8.924;2022-07-23T07:18:29;8.17;;;7.60;;
1991;SDS011;997;48.448;8.924;2022-07-23T07:20:56;8.60;;;7.90;;
1991;SDS011;997;48.448;8.924;2022-07-23T07:23:22;9.83;;;7.80;;
1991;SDS011;997;48.448;8.924;2022-07-23T07:25:48;7.60;;;7.00;;
1991;SDS011;997;48.448;8.924;2022-07-23T07:28:13;9.73;;;8.50;;
1991;SDS011;997;48.448;8.924;2022-07-23T07:30:39;9.17;;;8.37;;
1991;SDS011;997;48.448;8.924;2022-07-23T07:33:05;9.17;;;8.47;;
1991;SDS011;997;48.448;8.924;2022-07-23T07:35:31;9.30;;;8.40;;
1991;SDS011;997;48.448;8.924;2022-07-23T07:37:57;7.97;;;7.27;;
1991;SDS011;997;48.448;8.924;2022-07-23T07:40:24;9.20;;;8.40;;
1991;SDS011;997;48.448;8.924;2022-07-23T07:42:53;7.87;;;7.10;;
1991;SDS011;997;48.448;8.924;2022-07-23T07:45:20;8.17;;;7.47;;
1991;SDS011;997;48.448;8.924;2022-07-23T07:47:47;8.13;;;7.53;;
1991;SDS011;997;48.448;8.924;2022-07-23T07:50:16;9.37;;;8.07;;
1991;SDS011;997;48.448;8.924;2022-07-23T07:52:42;8.93;;;7.60;;
1991;SDS011;997;48.448;8.924;2022-07-23T07:55:08;7.70;;;7.20;;
1991;SDS011;997;48.448;8.924;2022-07-23T07:57:34;9.40;;;7.97;;
1991;SDS011;997;48.448;8.924;2022-07-23T08:00:01;8.20;;;7.70;;
1991;SDS011;997;48.448;8.924;2022-07-23T08:02:28;8.67;;;7.97;;
1991;SDS011;997;48.448;8.924;2022-07-23T08:04:54;8.10;;;7.40;;
1991;SDS011;997;48.448;8.924;2022-07-23T08:07:22;7.70;;;7.13;;
1991;SDS011;997;48.448;8.924;2022-07-23T08:09:48;8.90;;;8.10;;
1991;SDS011;997;48.448;8.924;2022-07-23T08:12:13;8.10;;;7.50;;
1991;SDS011;997;48.448;8.924;2022-07-23T08:14:39;8.40;;;7.70;;
1991;SDS011;997;48.448;8.924;2022-07-23T08:17:05;7.93;;;7.33;;
1991;SDS011;997;48.448;8.924;2022-07-23T08:19:35;7.90;;;7.20;;
1991;SDS011;997;48.448;8.924;2022-07-23T08:22:01;12.63;;;8.53;;
1991;SDS011;997;48.448;8.924;2022-07-23T08:24:26;7.50;;;6.90;;
1991;SDS011;997;48.448;8.924;2022-07-23T08:26:52;8.87;;;8.00;;
1991;SDS011;997;48.448;8.924;2022-07-23T08:29:20;8.13;;;7.53;;
1991;SDS011;997;48.448;8.924;2022-07-23T08:31:46;9.23;;;8.43;;
1991;SDS011;997;48.448;8.924;2022-07-23T08:34:11;9.00;;;8.30;;
1991;SDS011;997;48.448;8.924;2022-07-23T08:36:40;8.33;;;7.67;;
1991;SDS011;997;48.448;8.924;2022-07-23T08:39:05;8.93;;;7.07;;
1991;SDS011;997;48.448;8.924;2022-07-23T08:41:32;7.97;;;7.20;;
1991;SDS011;997;48.448;8.924;2022-07-23T08:43:59;7.27;;;6.77;;
1991;SDS011;997;48.448;8.924;2022-07-23T08:46:26;7.33;;;6.40;;
1991;SDS011;997;48.448;8.924;2022-07-23T08:48:53;9.50;;;8.80;;
1991;SDS011;997;48.448;8.924;2022-07-23T08:51:23;8.00;;;6.77;;
1991;SDS011;997;48.448;8.924;2022-07-23T08:53:59;8.43;;;7.60;;
1991;SDS011;997;48.448;8.924;2022-07-23T08:56:29;7.87;;;7.37;;
1991;SDS011;997;48.448;8.924;2022-07-23T08:58:55;7.10;;;6.50;;
1991;SDS011;997;48.448;8.924;2022-07-23T09:01:20;7.53;;;7.03;;
1991;SDS011;997;48.448;8.924;2022-07-23T09:03:46;7.80;;;7.10;;
1991;SDS011;997;48.448;8.924;2022-07-23T09:06:12;8.10;;;7.57;;
1991;SDS011;997;48.448;8.924;2022-07-23T09:08:39;7.73;;;7.03;;
1991;SDS011;997;48.448;8.924;2022-07-23T09:11:07;7.70;;;7.20;;
1991;SDS011;997;48.448;8.924;2022-07-23T09:13:42;6.50;;;6.00;;
1991;SDS011;997;48.448;8.924;2022-07-23T09:16:19;10.00;;;8.40;;
1991;SDS011;997;48.448;8.924;2022-07-23T09:24:00;8.50;;;7.70;;
1991;SDS011;997;48.448;8.924;2022-07-23T09:29:09;7.03;;;6.53;;
1991;SDS011;997;48.448;8.924;2022-07-23T09:31:53;7.10;;;6.60;;
1991;SDS011;997;48.448;8.924;2022-07-23T09:34:23;7.83;;;7.33;;
1991;SDS011;997;48.448;8.924;2022-07-23T09:37:11;8.37;;;7.77;;
1991;SDS011;997;48.448;8.924;2022-07-23T09:39:39;8.13;;;7.63;;
1991;SDS011;997;48.448;8.924;2022-07-23T09:42:17;7.70;;;7.20;;
1991;SDS011;997;48.448;8.924;2022-07-23T09:44:45;8.13;;;7.43;;
1991;SDS011;997;48.448;8.924;2022-07-23T09:47:12;7.90;;;7.30;;
1991;SDS011;997;48.448;8.924;2022-07-23T09:49:38;9.00;;;7.13;;
1991;SDS011;997;48.448;8.924;2022-07-23T09:52:04;7.73;;;7.13;;
1991;SDS011;997;48.448;8.924;2022-07-23T09:57:10;8.37;;;7.53;;
1991;SDS011;997;48.448;8.924;2022-07-23T09:59:42;7.37;;;6.87;;
1991;SDS011;997;48.448;8.924;2022-07-23T10:02:11;8.27;;;7.67;;
1991;SDS011;997;48.448;8.924;2022-07-23T10:04:38;8.73;;;7.27;;
1991;SDS011;997;48.448;8.924;2022-07-23T10:07:06;8.23;;;7.73;;
1991;SDS011;997;48.448;8.924;2022-07-23T10:09:37;8.33;;;7.73;;
1991;SDS011;997;48.448;8.924;2022-07-23T10:12:05;8.20;;;7.40;;
1991;SDS011;997;48.448;8.924;2022-07-23T10:14:50;8.83;;;8.13;;
1991;SDS011;997;48.448;8.924;2022-07-23T10:17:16;8.53;;;7.83;;
1991;SDS011;997;48.448;8.924;2022-07-23T10:19:43;8.77;;;7.83;;
1991;SDS011;997;48.448;8.924;2022-07-23T10:22:10;8.40;;;7.77;;
1991;SDS011;997;48.448;8.924;2022-07-23T10:27:42;7.90;;;7.27;;
1991;SDS011;997;48.448;8.924;2022-07-23T10:38:45;8.50;;;7.90;;
1991;SDS011;997;48.448;8.924;2022-07-23T10:41:29;8.07;;;7.27;;
1991;SDS011;997;48.448;8.924;2022-07-23T10:44:07;7.90;;;7.10;;
1991;SDS011;997;48.448;8.924;2022-07-23T10:46:57;9.17;;;7.97;;
1991;SDS011;997;48.448;8.924;2022-07-23T10:49:31;8.53;;;7.70;;
1991;SDS011;997;48.448;8.924;2022-07-23T10:54:48;9.27;;;8.27;;
1991;SDS011;997;48.448;8.924;2022-07-23T10:57:26;8.10;;;7.40;;
1991;SDS011;997;48.448;8.924;2022-07-23T11:02:37;7.00;;;6.50;;
1991;SDS011;997;48.448;8.924;2022-07-23T11:05:11;8.90;;;8.20;;
1991;SDS011;997;48.448;8.924;2022-07-23T11:10:34;8.50;;;7.80;;
1991;SDS011;997;48.448;8.924;2022-07-23T11:34:53;8.73;;;8.13;;
1991;SDS011;997;48.448;8.924;2022-07-23T11:37:38;7.33;;;6.83;;
1991;SDS011;997;48.448;8.924;2022-07-23T11:40:09;8.60;;;8.00;;
1991;SDS011;997;48.448;8.924;2022-07-23T11:42:37;8.30;;;7.70;;
1991;SDS011;997;48.448;8.924;2022-07-23T11:45:42;8.63;;;8.00;;
1991;SDS011;997;48.448;8.924;2022-07-23T11:48:22;7.20;;;6.73;;
1991;SDS011;997;48.448;8.924;2022-07-23T11:50:49;8.20;;;7.60;;
1991;SDS011;997;48.448;8.924;2022-07-23T11:53:23;8.30;;;7.70;;
1991;SDS011;997;48.448;8.924;2022-07-23T11:55:50;7.80;;;7.20;;
1991;SDS011;997;48.448;8.924;2022-07-23T11:58:16;7.60;;;7.03;;
1991;SDS011;997;48.448;8.924;2022-07-23T12:00:42;7.97;;;7.37;;
1991;SDS011;997;48.448;8.924;2022-07-23T12:03:08;8.07;;;7.57;;
1991;SDS011;997;48.448;8.924;2022-07-23T12:05:34;8.40;;;7.70;;
1991;SDS011;997;48.448;8.924;2022-07-23T12:08:06;8.43;;;7.80;;
1991;SDS011;997;48.448;8.924;2022-07-23T12:13:03;8.23;;;7.53;;
1991;SDS011;997;48.448;8.924;2022-07-23T12:15:30;8.90;;;8.20;;
1991;SDS011;997;48.448;8.924;2022-07-23T12:17:57;7.27;;;6.77;;
1991;SDS011;997;48.448;8.924;2022-07-23T12:20:25;7.67;;;6.77;;
1991;SDS011;997;48.448;8.924;2022-07-23T12:23:00;7.97;;;7.43;;
1991;SDS011;997;48.448;8.924;2022-07-23T12:25:28;7.67;;;7.17;;
1991;SDS011;997;48.448;8.924;2022-07-23T12:28:00;7.30;;;6.77;;
1991;SDS011;997;48.448;8.924;2022-07-23T12:30:37;8.27;;;7.67;;
1991;SDS011;997;48.448;8.924;2022-07-23T12:33:07;7.60;;;7.10;;
1991;SDS011;997;48.448;8.924;2022-07-23T12:38:06;7.90;;;7.20;;
1991;SDS011;997;48.448;8.924;2022-07-23T12:40:41;6.87;;;6.30;;
1991;SDS011;997;48.448;8.924;2022-07-23T12:43:09;8.37;;;7.77;;
1991;SDS011;997;48.448;8.924;2022-07-23T12:45:46;8.23;;;7.63;;
1991;SDS011;997;48.448;8.924;2022-07-23T12:50:56;8.77;;;8.07;;
1991;SDS011;997;48.448;8.924;2022-07-23T12:53:25;7.10;;;6.50;;
1991;SDS011;997;48.448;8.924;2022-07-23T12:58:24;8.00;;;7.40;;
1991;SDS011;997;48.448;8.924;2022-07-23T13:03:21;7.43;;;6.80;;
1991;SDS011;997;48.448;8.924;2022-07-23T13:05:48;7.20;;;6.70;;
1991;SDS011;997;48.448;8.924;2022-07-23T13:08:15;7.83;;;7.23;;
1991;SDS011;997;48.448;8.924;2022-07-23T13:10:40;7.77;;;7.07;;
1991;SDS011;997;48.448;8.924;2022-07-23T13:13:12;8.23;;;7.43;;
1991;SDS011;997;48.448;8.924;2022-07-23T13:15:38;8.20;;;7.60;;
1991;SDS011;997;48.448;8.924;2022-07-23T13:18:04;8.20;;;7.50;;
1991;SDS011;997;48.448;8.924;2022-07-23T13:20:31;7.10;;;6.70;;
1991;SDS011;997;48.448;8.924;2022-07-23T13:22:59;8.20;;;7.50;;
1991;SDS011;997;48.448;8.924;2022-07-23T13:25:26;8.40;;;7.80;;
1991;SDS011;997;48.448;8.924;2022-07-23T13:27:52;8.03;;;7.43;;
1991;SDS011;997;48.448;8.924;2022-07-23T13:30:17;8.27;;;7.47;;
1991;SDS011;997;48.448;8.924;2022-07-23T13:32:44;9.20;;;7.50;;
1991;SDS011;997;48.448;8.924;2022-07-23T13:35:09;7.63;;;7.03;;
1991;SDS011;997;48.448;8.924;2022-07-23T13:37:36;8.70;;;8.00;;
1991;SDS011;997;48.448;8.924;2022-07-23T13:40:03;7.80;;;7.27;;
1991;SDS011;997;48.448;8.924;2022-07-23T13:42:29;8.20;;;7.40;;
1991;SDS011;997;48.448;8.924;2022-07-23T13:44:55;8.20;;;7.40;;
1991;SDS011;997;48.448;8.924;2022-07-23T13:47:20;8.23;;;7.63;;
1991;SDS011;997;48.448;8.924;2022-07-23T13:49:46;7.97;;;7.30;;
1991;SDS011;997;48.448;8.924;2022-07-23T13:52:12;7.50;;;7.00;;
1991;SDS011;997;48.448;8.924;2022-07-23T13:54:37;8.40;;;7.70;;
1991;SDS011;997;48.448;8.924;2022-07-23T13:57:03;7.80;;;7.20;;
1991;SDS011;997;48.448;8.924;2022-07-23T13:59:29;7.57;;;7.07;;
1991;SDS011;997;48.448;8.924;2022-07-23T14:01:55;7.60;;;7.10;;
1991;SDS011;997;48.448;8.924;2022-07-23T14:04:21;7.77;;;7.27;;
1991;SDS011;997;48.448;8.924;2022-07-23T14:06:47;8.03;;;7.43;;
1991;SDS011;997;48.448;8.924;2022-07-23T14:09:13;7.30;;;6.60;;
1991;SDS011;997;48.448;8.924;2022-07-23T14:11:39;8.47;;;7.07;;
1991;SDS011;997;48.448;8.924;2022-07-23T14:14:04;7.03;;;6.43;;
1991;SDS011;997;48.448;8.924;2022-07-23T14:16:30;7.33;;;6.67;;
1991;SDS011;997;48.448;8.924;2022-07-23T14:18:56;8.23;;;6.50;;
1991;SDS011;997;48.448;8.924;2022-07-23T14:21:21;7.23;;;6.53;;
1991;SDS011;997;48.448;8.924;2022-07-23T14:23:47;6.27;;;5.77;;
1991;SDS011;997;48.448;8.924;2022-07-23T14:26:13;6.63;;;6.13;;
1991;SDS011;997;48.448;8.924;2022-07-23T14:28:38;7.07;;;6.47;;
1991;SDS011;997;48.448;8.924;2022-07-23T14:31:04;7.03;;;6.50;;
1991;SDS011;997;48.448;8.924;2022-07-23T14:33:30;6.50;;;6.00;;
1991;SDS011;997;48.448;8.924;2022-07-23T14:35:56;7.57;;;7.00;;
1991;SDS011;997;48.448;8.924;2022-07-23T14:38:23;7.30;;;6.70;;
1991;SDS011;997;48.448;8.924;2022-07-23T14:40:48;7.17;;;6.57;;
1991;SDS011;997;48.448;8.924;2022-07-23T14:43:14;6.87;;;6.30;;
1991;SDS011;997;48.448;8.924;2022-07-23T14:45:40;7.33;;;6.73;;
1991;SDS011;997;48.448;8.924;2022-07-23T14:48:06;7.00;;;6.50;;
1991;SDS011;997;48.448;8.924;2022-07-23T14:50:33;6.17;;;5.40;;
1991;SDS011;997;48.448;8.924;2022-07-23T14:52:58;6.80;;;6.40;;
1991;SDS011;997;48.448;8.924;2022-07-23T14:55:24;5.50;;;5.10;;
1991;SDS011;997;48.448;8.924;2022-07-23T14:57:50;7.00;;;5.80;;
1991;SDS011;997;48.448;8.924;2022-07-23T15:00:17;6.23;;;5.80;;
1991;SDS011;997;48.448;8.924;2022-07-23T15:02:43;7.20;;;6.70;;
1991;SDS011;997;48.448;8.924;2022-07-23T15:05:09;6.50;;;6.00;;
1991;SDS011;997;48.448;8.924;2022-07-23T15:07:35;6.23;;;5.80;;
1991;SDS011;997;48.448;8.924;2022-07-23T15:10:01;6.83;;;6.30;;
1991;SDS011;997;48.448;8.924;2022-07-23T15:12:27;6.50;;;6.00;;
1991;SDS011;997;48.448;8.924;2022-07-23T15:14:59;6.20;;;5.80;;
1991;SDS011;997;48.448;8.924;2022-07-23T15:17:24;6.30;;;5.80;;
1991;SDS011;997;48.448;8.924;2022-07-23T15:19:50;6.30;;;5.83;;
1991;SDS011;997;48.448;8.924;2022-07-23T15:22:16;6.67;;;6.07;;
1991;SDS011;997;48.448;8.924;2022-07-23T15:24:42;6.80;;;6.20;;
1991;SDS011;997;48.448;8.924;2022-07-23T15:27:08;7.63;;;7.13;;
1991;SDS011;997;48.448;8.924;2022-07-23T15:29:34;6.63;;;6.03;;
1991;SDS011;997;48.448;8.924;2022-07-23T15:32:00;6.60;;;6.00;;
1991;SDS011;997;48.448;8.924;2022-07-23T15:34:26;7.30;;;6.63;;
1991;SDS011;997;48.448;8.924;2022-07-23T15:36:52;6.33;;;5.83;;
1991;SDS011;997;48.448;8.924;2022-07-23T15:39:17;7.33;;;6.67;;
1991;SDS011;997;48.448;8.924;2022-07-23T15:41:43;7.63;;;6.83;;
1991;SDS011;997;48.448;8.924;2022-07-23T15:44:09;7.33;;;6.73;;
1991;SDS011;997;48.448;8.924;2022-07-23T15:46:35;8.83;;;6.90;;
1991;SDS011;997;48.448;8.924;2022-07-23T15:49:01;7.10;;;6.60;;
1991;SDS011;997;48.448;8.924;2022-07-23T15:51:29;7.73;;;7.00;;
1991;SDS011;997;48.448;8.924;2022-07-23T15:53:56;7.17;;;6.57;;
1991;SDS011;997;48.448;8.924;2022-07-23T15:56:22;6.40;;;5.90;;
1991;SDS011;997;48.448;8.924;2022-07-23T15:58:47;6.47;;;5.97;;
1991;SDS011;997;48.448;8.924;2022-07-23T16:01:13;6.87;;;6.27;;
1991;SDS011;997;48.448;8.924;2022-07-23T16:03:39;7.60;;;6.90;;
1991;SDS011;997;48.448;8.924;2022-07-23T16:06:05;6.53;;;6.13;;
1991;SDS011;997;48.448;8.924;2022-07-23T16:08:32;6.93;;;6.33;;
1991;SDS011;997;48.448;8.924;2022-07-23T16:10:57;7.60;;;7.00;;
1991;SDS011;997;48.448;8.924;2022-07-23T16:13:24;6.90;;;6.30;;
1991;SDS011;997;48.448;8.924;2022-07-23T16:15:50;7.00;;;6.30;;
1991;SDS011;997;48.448;8.924;2022-07-23T16:18:18;8.07;;;7.37;;
1991;SDS011;997;48.448;8.924;2022-07-23T16:20:47;7.30;;;6.80;;
1991;SDS011;997;48.448;8.924;2022-07-23T16:23:14;7.70;;;7.00;;
1991;SDS011;997;48.448;8.924;2022-07-23T16:25:40;7.27;;;6.73;;
1991;SDS011;997;48.448;8.924;2022-07-23T16:28:06;8.20;;;7.60;;
1991;SDS011;997;48.448;8.924;2022-07-23T16:30:32;7.43;;;6.83;;
1991;SDS011;997;48.448;8.924;2022-07-23T16:32:59;8.37;;;7.67;;
1991;SDS011;997;48.448;8.924;2022-07-23T16:35:25;8.50;;;7.80;;
1991;SDS011;997;48.448;8.924;2022-07-23T16:37:51;7.30;;;6.80;;
1991;SDS011;997;48.448;8.924;2022-07-23T16:40:17;6.20;;;5.80;;
1991;SDS011;997;48.448;8.924;2022-07-23T16:42:43;8.17;;;7.50;;
1991;SDS011;997;48.448;8.924;2022-07-23T16:45:09;7.20;;;6.50;;
1991;SDS011;997;48.448;8.924;2022-07-23T16:47:35;8.03;;;6.80;;
1991;SDS011;997;48.448;8.924;2022-07-23T16:50:02;6.93;;;6.43;;
1991;SDS011;997;48.448;8.924;2022-07-23T16:52:30;6.83;;;6.33;;
1991;SDS011;997;48.448;8.924;2022-07-23T16:54:56;7.80;;;7.10;;
1991;SDS011;997;48.448;8.924;2022-07-23T16:57:22;7.90;;;7.10;;
1991;SDS011;997;48.448;8.924;2022-07-23T16:59:48;7.30;;;6.70;;
1991;SDS011;997;48.448;8.924;2022-07-23T17:02:14;7.83;;;7.03;;
1991;SDS011;997;48.448;8.924;2022-07-23T17:04:40;7.17;;;6.57;;
1991;SDS011;997;48.448;8.924;2022-07-23T17:07:08;8.30;;;7.57;;
1991;SDS011;997;48.448;8.924;2022-07-23T17:09:34;7.20;;;6.60;;
1991;SDS011;997;48.448;8.924;2022-07-23T17:12:01;8.70;;;7.83;;
1991;SDS011;997;48.448;8.924;2022-07-23T17:14:27;7.60;;;7.10;;
1991;SDS011;997;48.448;8.924;2022-07-23T17:16:53;7.07;;;6.57;;
1991;SDS011;997;48.448;8.924;2022-07-23T17:19:19;7.80;;;7.20;;
1991;SDS011;997;48.448;8.924;2022-07-23T17:21:45;7.93;;;7.33;;
1991;SDS011;997;48.448;8.924;2022-07-23T17:24:11;8.30;;;7.60;;
1991;SDS011;997;48.448;8.924;2022-07-23T17:26:37;8.10;;;7.40;;
1991;SDS011;997;48.448;8.924;2022-07-23T17:29:04;7.57;;;6.93;;
1991;SDS011;997;48.448;8.924;2022-07-23T17:31:30;7.60;;;7.00;;
1991;SDS011;997;48.448;8.924;2022-07-23T17:33:55;7.57;;;7.00;;
1991;SDS011;997;48.448;8.924;2022-07-23T17:36:21;8.80;;;7.53;;
1991;SDS011;997;48.448;8.924;2022-07-23T17:38:47;7.70;;;7.10;;
1991;SDS011;997;48.448;8.924;2022-07-23T17:41:14;7.20;;;6.70;;
1991;SDS011;997;48.448;8.924;2022-07-23T17:43:42;7.33;;;6.73;;
1991;SDS011;997;48.448;8.924;2022-07-23T17:46:07;6.60;;;6.10;;
1991;SDS011;997;48.448;8.924;2022-07-23T17:48:33;6.30;;;5.90;;
1991;SDS011;997;48.448;8.924;2022-07-23T17:50:59;8.07;;;7.10;;
1991;SDS011;997;48.448;8.924;2022-07-23T17:53:26;7.03;;;6.50;;
1991;SDS011;997;48.448;8.924;2022-07-23T17:55:52;6.80;;;6.33;;
1991;SDS011;997;48.448;8.924;2022-07-23T17:58:18;7.57;;;6.97;;
1991;SDS011;997;48.448;8.924;2022-07-23T18:00:44;7.20;;;6.60;;
1991;SDS011;997;48.448;8.924;2022-07-23T18:03:10;7.33;;;6.80;;
1991;SDS011;997;48.448;8.924;2022-07-23T18:05:36;7.53;;;6.73;;
1991;SDS011;997;48.448;8.924;2022-07-23T18:08:03;7.40;;;6.70;;
1991;SDS011;997;48.448;8.924;2022-07-23T18:10:30;8.40;;;7.80;;
1991;SDS011;997;48.448;8.924;2022-07-23T18:12:56;8.30;;;7.57;;
1991;SDS011;997;48.448;8.924;2022-07-23T18:15:22;8.80;;;8.00;;
1991;SDS011;997;48.448;8.924;2022-07-23T18:17:48;8.97;;;8.17;;
1991;SDS011;997;48.448;8.924;2022-07-23T18:20:15;7.87;;;7.27;;
1991;SDS011;997;48.448;8.924;2022-07-23T18:22:40;6.67;;;6.17;;
1991;SDS011;997;48.448;8.924;2022-07-23T18:25:07;8.33;;;7.63;;
1991;SDS011;997;48.448;8.924;2022-07-23T18:27:34;7.70;;;7.00;;
1991;SDS011;997;48.448;8.924;2022-07-23T18:30:01;7.67;;;7.00;;
1991;SDS011;997;48.448;8.924;2022-07-23T18:32:27;7.23;;;6.67;;
1991;SDS011;997;48.448;8.924;2022-07-23T18:34:53;8.10;;;7.33;;
1991;SDS011;997;48.448;8.924;2022-07-23T18:37:20;8.23;;;7.70;;
1991;SDS011;997;48.448;8.924;2022-07-23T18:39:47;8.77;;;8.00;;
1991;SDS011;997;48.448;8.924;2022-07-23T18:42:14;8.47;;;7.90;;
1991;SDS011;997;48.448;8.924;2022-07-23T18:44:39;8.00;;;7.13;;
1991;SDS011;997;48.448;8.924;2022-07-23T18:47:05;8.63;;;8.03;;
1991;SDS011;997;48.448;8.924;2022-07-23T18:49:31;8.53;;;7.73;;
1991;SDS011;997;48.448;8.924;2022-07-23T18:51:59;6.80;;;6.40;;
1991;SDS011;997;48.448;8.924;2022-07-23T18:54:25;8.03;;;7.47;;
1991;SDS011;997;48.448;8.924;2022-07-23T18:56:51;8.60;;;8.00;;
1991;SDS011;997;48.448;8.924;2022-07-23T18:59:17;8.57;;;7.87;;
1991;SDS011;997;48.448;8.924;2022-07-23T19:01:42;8.33;;;7.70;;
1991;SDS011;997;48.448;8.924;2022-07-23T19:04:09;7.63;;;6.90;;
1991;SDS011;997;48.448;8.924;2022-07-23T19:06:35;8.20;;;7.50;;
1991;SDS011;997;48.448;8.924;2022-07-23T19:09:02;7.87;;;7.27;;
1991;SDS011;997;48.448;8.924;2022-07-23T19:11:28;8.20;;;7.60;;
1991;SDS011;997;48.448;8.924;2022-07-23T19:13:54;7.70;;;7.10;;
1991;SDS011;997;48.448;8.924;2022-07-23T19:16:19;8.20;;;7.50;;
1991;SDS011;997;48.448;8.924;2022-07-23T19:18:45;7.30;;;6.70;;
1991;SDS011;997;48.448;8.924;2022-07-23T19:21:11;9.50;;;8.53;;
1991;SDS011;997;48.448;8.924;2022-07-23T19:23:37;9.17;;;8.30;;
1991;SDS011;997;48.448;8.924;2022-07-23T19:26:03;8.17;;;7.57;;
1991;SDS011;997;48.448;8.924;2022-07-23T19:28:30;8.30;;;7.70;;
1991;SDS011;997;48.448;8.924;2022-07-23T19:30:56;9.53;;;8.63;;
1991;SDS011;997;48.448;8.924;2022-07-23T19:33:22;8.90;;;8.30;;